sensor_id;sensor_type;location;lat;lon;timestamp;P1;durP1;ratioP1;P2;durP2;ratioP2
11531;SDS011;5822;51.000;5.874;2024-01-15T00:01:54;39.90;;;36.60;;
11531;SDS011;5822;51.000;5.874;2024-01-15T00:04:20;38.50;;;35.30;;
11531;SDS011;5822;51.000;5.874;2024-01-15T00:06:45;38.10;;;35.00;;
11531;SDS011;5822;51.000;5.874;2024-01-15T00:09:11;36.20;;;33.20;;
11531;SDS011;5822;51.000;5.874;2024-01-15T00:11:37;36.65;;;33.55;;
11531;SDS011;5822;51.000;5.874;2024-01-15T00:14:02;38.15;;;34.97;;
11531;SDS011;5822;51.000;5.874;2024-01-15T00:16:28;36.80;;;33.80;;
11531;SDS011;5822;51.000;5.874;2024-01-15T00:18:54;36.03;;;33.05;;
11531;SDS011;5822;51.000;5.874;2024-01-15T00:21:19;37.50;;;34.30;;
11531;SDS011;5822;51.000;5.874;2024-01-15T00:23:47;38.27;;;35.07;;
11531;SDS011;5822;51.000;5.874;2024-01-15T00:26:13;40.63;;;37.22;;
11531;SDS011;5822;51.000;5.874;2024-01-15T00:28:39;38.88;;;35.60;;
11531;SDS011;5822;51.000;5.874;2024-01-15T00:31:04;38.75;;;35.45;;
11531;SDS011;5822;51.000;5.874;2024-01-15T00:33:30;39.47;;;36.17;;
11531;SDS011;5822;51.000;5.874;2024-01-15T00:35:58;38.33;;;35.00;;
11531;SDS011;5822;51.000;5.874;2024-01-15T00:38:24;39.25;;;35.85;;
11531;SDS011;5822;51.000;5.874;2024-01-15T00:40:50;38.50;;;35.22;;
11531;SDS011;5822;51.000;5.874;2024-01-15T00:43:15;39.80;;;36.40;;
11531;SDS011;5822;51.000;5.874;2024-01-15T00:45:43;39.03;;;35.63;;
11531;SDS011;5822;51.000;5.874;2024-01-15T00:48:09;37.40;;;34.20;;
11531;SDS011;5822;51.000;5.874;2024-01-15T00:50:35;39.50;;;36.10;;
11531;SDS011;5822;51.000;5.874;2024-01-15T00:53:01;37.78;;;34.53;;
11531;SDS011;5822;51.000;5.874;2024-01-15T00:55:27;37.28;;;34.08;;
11531;SDS011;5822;51.000;5.874;2024-01-15T00:57:54;35.90;;;32.90;;
11531;SDS011;5822;51.000;5.874;2024-01-15T01:00:19;41.17;;;37.47;;
11531;SDS011;5822;51.000;5.874;2024-01-15T01:02:45;39.22;;;35.83;;
11531;SDS011;5822;51.000;5.874;2024-01-15T01:05:11;39.40;;;36.13;;
11531;SDS011;5822;51.000;5.874;2024-01-15T01:07:37;41.33;;;38.03;;
11531;SDS011;5822;51.000;5.874;2024-01-15T01:10:03;41.25;;;37.85;;
11531;SDS011;5822;51.000;5.874;2024-01-15T01:12:29;38.55;;;35.35;;
11531;SDS011;5822;51.000;5.874;2024-01-15T01:14:55;37.05;;;33.97;;
11531;SDS011;5822;51.000;5.874;2024-01-15T01:17:20;38.58;;;35.17;;
11531;SDS011;5822;51.000;5.874;2024-01-15T01:19:47;37.50;;;34.40;;
11531;SDS011;5822;51.000;5.874;2024-01-15T01:22:12;39.03;;;35.72;;
11531;SDS011;5822;51.000;5.874;2024-01-15T01:24:38;36.67;;;33.58;;
11531;SDS011;5822;51.000;5.874;2024-01-15T01:27:04;37.05;;;33.95;;
11531;SDS011;5822;51.000;5.874;2024-01-15T01:29:29;36.70;;;33.60;;
11531;SDS011;5822;51.000;5.874;2024-01-15T01:31:55;35.80;;;32.90;;
11531;SDS011;5822;51.000;5.874;2024-01-15T01:34:21;36.25;;;33.25;;
11531;SDS011;5822;51.000;5.874;2024-01-15T01:36:47;36.33;;;33.28;;
11531;SDS011;5822;51.000;5.874;2024-01-15T01:39:13;34.97;;;31.97;;
11531;SDS011;5822;51.000;5.874;2024-01-15T01:41:39;32.90;;;30.17;;
11531;SDS011;5822;51.000;5.874;2024-01-15T01:44:05;34.00;;;31.10;;
11531;SDS011;5822;51.000;5.874;2024-01-15T01:46:32;32.70;;;30.00;;
11531;SDS011;5822;51.000;5.874;2024-01-15T01:48:58;35.03;;;32.13;;
11531;SDS011;5822;51.000;5.874;2024-01-15T01:51:30;34.50;;;31.65;;
11531;SDS011;5822;51.000;5.874;2024-01-15T01:53:56;33.90;;;31.10;;
11531;SDS011;5822;51.000;5.874;2024-01-15T01:56:22;34.25;;;31.45;;
11531;SDS011;5822;51.000;5.874;2024-01-15T01:58:48;35.53;;;32.63;;
11531;SDS011;5822;51.000;5.874;2024-01-15T02:01:14;35.30;;;32.40;;
11531;SDS011;5822;51.000;5.874;2024-01-15T02:03:41;34.92;;;32.03;;
11531;SDS011;5822;51.000;5.874;2024-01-15T02:06:07;34.65;;;31.83;;
11531;SDS011;5822;51.000;5.874;2024-01-15T02:08:33;34.80;;;31.87;;
11531;SDS011;5822;51.000;5.874;2024-01-15T02:11:00;34.28;;;31.48;;
11531;SDS011;5822;51.000;5.874;2024-01-15T02:13:25;37.03;;;33.93;;
11531;SDS011;5822;51.000;5.874;2024-01-15T02:15:51;35.42;;;32.42;;
11531;SDS011;5822;51.000;5.874;2024-01-15T02:18:17;36.47;;;33.38;;
11531;SDS011;5822;51.000;5.874;2024-01-15T02:20:42;35.03;;;32.03;;
11531;SDS011;5822;51.000;5.874;2024-01-15T02:25:41;36.47;;;33.42;;
11531;SDS011;5822;51.000;5.874;2024-01-15T02:28:15;37.67;;;34.58;;
11531;SDS011;5822;51.000;5.874;2024-01-15T02:30:42;36.00;;;33.00;;
11531;SDS011;5822;51.000;5.874;2024-01-15T02:33:08;34.22;;;31.42;;
11531;SDS011;5822;51.000;5.874;2024-01-15T02:35:35;36.45;;;33.40;;
11531;SDS011;5822;51.000;5.874;2024-01-15T02:38:04;34.57;;;31.67;;
11531;SDS011;5822;51.000;5.874;2024-01-15T02:40:31;35.15;;;32.25;;
11531;SDS011;5822;51.000;5.874;2024-01-15T02:42:56;34.10;;;31.23;;
11531;SDS011;5822;51.000;5.874;2024-01-15T02:45:22;33.93;;;31.13;;
11531;SDS011;5822;51.000;5.874;2024-01-15T02:47:48;36.38;;;33.38;;
11531;SDS011;5822;51.000;5.874;2024-01-15T02:50:14;34.13;;;31.40;;
11531;SDS011;5822;51.000;5.874;2024-01-15T02:52:41;34.33;;;31.45;;
11531;SDS011;5822;51.000;5.874;2024-01-15T02:55:07;33.63;;;30.92;;
11531;SDS011;5822;51.000;5.874;2024-01-15T02:57:33;33.42;;;30.63;;
11531;SDS011;5822;51.000;5.874;2024-01-15T02:59:59;31.97;;;29.37;;
11531;SDS011;5822;51.000;5.874;2024-01-15T03:02:24;33.30;;;30.55;;
11531;SDS011;5822;51.000;5.874;2024-01-15T03:04:50;34.33;;;31.42;;
11531;SDS011;5822;51.000;5.874;2024-01-15T03:07:15;33.55;;;30.75;;
11531;SDS011;5822;51.000;5.874;2024-01-15T03:09:42;33.28;;;30.58;;
11531;SDS011;5822;51.000;5.874;2024-01-15T03:12:08;33.17;;;30.47;;
11531;SDS011;5822;51.000;5.874;2024-01-15T03:14:34;32.60;;;30.00;;
11531;SDS011;5822;51.000;5.874;2024-01-15T03:17:00;34.10;;;31.40;;
11531;SDS011;5822;51.000;5.874;2024-01-15T03:19:26;33.67;;;30.98;;
11531;SDS011;5822;51.000;5.874;2024-01-15T03:21:52;33.15;;;30.45;;
11531;SDS011;5822;51.000;5.874;2024-01-15T03:24:18;33.07;;;30.37;;
11531;SDS011;5822;51.000;5.874;2024-01-15T03:26:43;33.50;;;30.70;;
11531;SDS011;5822;51.000;5.874;2024-01-15T03:29:09;31.87;;;29.37;;
11531;SDS011;5822;51.000;5.874;2024-01-15T03:31:35;33.43;;;30.73;;
11531;SDS011;5822;51.000;5.874;2024-01-15T03:34:00;32.45;;;29.85;;
11531;SDS011;5822;51.000;5.874;2024-01-15T03:36:26;32.03;;;29.52;;
11531;SDS011;5822;51.000;5.874;2024-01-15T03:38:51;33.40;;;30.70;;
11531;SDS011;5822;51.000;5.874;2024-01-15T03:41:17;32.22;;;29.63;;
11531;SDS011;5822;51.000;5.874;2024-01-15T03:43:43;33.30;;;30.60;;
11531;SDS011;5822;51.000;5.874;2024-01-15T03:46:08;31.42;;;28.92;;
11531;SDS011;5822;51.000;5.874;2024-01-15T03:48:34;32.10;;;29.50;;
11531;SDS011;5822;51.000;5.874;2024-01-15T03:51:00;32.87;;;30.10;;
11531;SDS011;5822;51.000;5.874;2024-01-15T03:53:25;30.50;;;28.10;;
11531;SDS011;5822;51.000;5.874;2024-01-15T03:55:51;31.63;;;29.10;;
11531;SDS011;5822;51.000;5.874;2024-01-15T03:58:17;31.70;;;29.20;;
11531;SDS011;5822;51.000;5.874;2024-01-15T04:00:43;31.20;;;28.70;;
11531;SDS011;5822;51.000;5.874;2024-01-15T04:03:09;30.58;;;28.17;;
11531;SDS011;5822;51.000;5.874;2024-01-15T04:05:35;29.70;;;27.40;;
11531;SDS011;5822;51.000;5.874;2024-01-15T04:08:00;30.50;;;28.10;;
11531;SDS011;5822;51.000;5.874;2024-01-15T04:10:26;29.40;;;27.13;;
11531;SDS011;5822;51.000;5.874;2024-01-15T04:12:52;28.70;;;26.50;;
11531;SDS011;5822;51.000;5.874;2024-01-15T04:15:18;27.50;;;25.42;;
11531;SDS011;5822;51.000;5.874;2024-01-15T04:17:43;27.27;;;25.27;;
11531;SDS011;5822;51.000;5.874;2024-01-15T04:20:09;26.98;;;24.98;;
11531;SDS011;5822;51.000;5.874;2024-01-15T04:22:36;27.85;;;25.75;;
11531;SDS011;5822;51.000;5.874;2024-01-15T04:25:02;26.50;;;24.50;;
11531;SDS011;5822;51.000;5.874;2024-01-15T04:27:28;27.83;;;25.73;;
11531;SDS011;5822;51.000;5.874;2024-01-15T04:29:54;26.90;;;24.90;;
11531;SDS011;5822;51.000;5.874;2024-01-15T04:32:20;27.70;;;25.50;;
11531;SDS011;5822;51.000;5.874;2024-01-15T04:34:45;28.37;;;26.17;;
11531;SDS011;5822;51.000;5.874;2024-01-15T04:37:11;27.33;;;25.23;;
11531;SDS011;5822;51.000;5.874;2024-01-15T04:39:38;28.05;;;25.85;;
11531;SDS011;5822;51.000;5.874;2024-01-15T04:42:04;29.83;;;27.50;;
11531;SDS011;5822;51.000;5.874;2024-01-15T04:44:30;29.30;;;27.10;;
11531;SDS011;5822;51.000;5.874;2024-01-15T04:46:55;30.53;;;28.23;;
11531;SDS011;5822;51.000;5.874;2024-01-15T04:49:21;30.30;;;28.00;;
11531;SDS011;5822;51.000;5.874;2024-01-15T04:51:47;30.27;;;27.98;;
11531;SDS011;5822;51.000;5.874;2024-01-15T04:54:12;29.00;;;26.70;;
11531;SDS011;5822;51.000;5.874;2024-01-15T04:56:42;28.98;;;26.67;;
11531;SDS011;5822;51.000;5.874;2024-01-15T04:59:09;28.55;;;26.35;;
11531;SDS011;5822;51.000;5.874;2024-01-15T05:01:35;28.73;;;26.53;;
11531;SDS011;5822;51.000;5.874;2024-01-15T05:04:00;29.10;;;26.80;;
11531;SDS011;5822;51.000;5.874;2024-01-15T05:06:26;29.95;;;27.65;;
11531;SDS011;5822;51.000;5.874;2024-01-15T05:08:52;29.23;;;26.92;;
11531;SDS011;5822;51.000;5.874;2024-01-15T05:11:18;29.13;;;26.83;;
11531;SDS011;5822;51.000;5.874;2024-01-15T05:13:44;29.75;;;27.50;;
11531;SDS011;5822;51.000;5.874;2024-01-15T05:16:09;28.98;;;26.70;;
11531;SDS011;5822;51.000;5.874;2024-01-15T05:18:35;28.10;;;25.90;;
11531;SDS011;5822;51.000;5.874;2024-01-15T05:21:02;29.67;;;27.30;;
11531;SDS011;5822;51.000;5.874;2024-01-15T05:23:28;28.75;;;26.45;;
11531;SDS011;5822;51.000;5.874;2024-01-15T05:25:54;29.60;;;27.30;;
11531;SDS011;5822;51.000;5.874;2024-01-15T05:28:19;28.53;;;26.33;;
11531;SDS011;5822;51.000;5.874;2024-01-15T05:30:45;28.42;;;26.23;;
11531;SDS011;5822;51.000;5.874;2024-01-15T05:33:11;28.42;;;26.23;;
11531;SDS011;5822;51.000;5.874;2024-01-15T05:35:36;29.35;;;27.15;;
11531;SDS011;5822;51.000;5.874;2024-01-15T05:38:02;27.98;;;25.77;;
11531;SDS011;5822;51.000;5.874;2024-01-15T05:40:28;27.40;;;25.30;;
11531;SDS011;5822;51.000;5.874;2024-01-15T05:42:53;27.43;;;25.33;;
11531;SDS011;5822;51.000;5.874;2024-01-15T05:45:19;27.33;;;25.23;;
11531;SDS011;5822;51.000;5.874;2024-01-15T05:47:45;28.20;;;26.00;;
11531;SDS011;5822;51.000;5.874;2024-01-15T05:50:10;28.20;;;26.00;;
11531;SDS011;5822;51.000;5.874;2024-01-15T05:52:36;27.77;;;25.67;;
11531;SDS011;5822;51.000;5.874;2024-01-15T05:55:02;27.42;;;25.33;;
11531;SDS011;5822;51.000;5.874;2024-01-15T05:57:28;28.73;;;26.53;;
11531;SDS011;5822;51.000;5.874;2024-01-15T05:59:56;28.13;;;25.92;;
11531;SDS011;5822;51.000;5.874;2024-01-15T06:02:22;28.70;;;26.50;;
11531;SDS011;5822;51.000;5.874;2024-01-15T06:04:47;29.33;;;27.03;;
11531;SDS011;5822;51.000;5.874;2024-01-15T06:07:13;31.93;;;29.53;;
11531;SDS011;5822;51.000;5.874;2024-01-15T06:09:39;32.83;;;30.43;;
11531;SDS011;5822;51.000;5.874;2024-01-15T06:12:05;30.63;;;28.23;;
11531;SDS011;5822;51.000;5.874;2024-01-15T06:14:32;30.30;;;28.00;;
11531;SDS011;5822;51.000;5.874;2024-01-15T06:16:57;33.00;;;30.40;;
11531;SDS011;5822;51.000;5.874;2024-01-15T06:19:23;32.28;;;29.67;;
11531;SDS011;5822;51.000;5.874;2024-01-15T06:21:49;35.13;;;32.40;;
11531;SDS011;5822;51.000;5.874;2024-01-15T06:24:14;37.63;;;34.83;;
11531;SDS011;5822;51.000;5.874;2024-01-15T06:26:42;38.15;;;35.25;;
11531;SDS011;5822;51.000;5.874;2024-01-15T06:29:08;37.08;;;34.28;;
11531;SDS011;5822;51.000;5.874;2024-01-15T06:31:34;36.92;;;34.03;;
11531;SDS011;5822;51.000;5.874;2024-01-15T06:33:59;35.55;;;32.78;;
11531;SDS011;5822;51.000;5.874;2024-01-15T06:36:25;35.10;;;32.38;;
11531;SDS011;5822;51.000;5.874;2024-01-15T06:38:51;36.88;;;33.97;;
11531;SDS011;5822;51.000;5.874;2024-01-15T06:41:16;35.33;;;32.63;;
11531;SDS011;5822;51.000;5.874;2024-01-15T06:43:42;34.80;;;32.10;;
11531;SDS011;5822;51.000;5.874;2024-01-15T06:46:07;36.93;;;34.03;;
11531;SDS011;5822;51.000;5.874;2024-01-15T06:48:34;37.53;;;34.63;;
11531;SDS011;5822;51.000;5.874;2024-01-15T06:51:00;35.80;;;33.10;;
11531;SDS011;5822;51.000;5.874;2024-01-15T06:53:25;36.70;;;33.90;;
11531;SDS011;5822;51.000;5.874;2024-01-15T06:55:51;36.50;;;33.70;;
11531;SDS011;5822;51.000;5.874;2024-01-15T06:58:17;35.90;;;33.10;;
11531;SDS011;5822;51.000;5.874;2024-01-15T07:00:45;35.10;;;32.33;;
11531;SDS011;5822;51.000;5.874;2024-01-15T07:03:11;35.78;;;33.00;;
11531;SDS011;5822;51.000;5.874;2024-01-15T07:05:37;35.45;;;32.75;;
11531;SDS011;5822;51.000;5.874;2024-01-15T07:08:03;35.00;;;32.30;;
11531;SDS011;5822;51.000;5.874;2024-01-15T07:10:29;38.43;;;35.73;;
11531;SDS011;5822;51.000;5.874;2024-01-15T07:12:55;40.67;;;37.78;;
11531;SDS011;5822;51.000;5.874;2024-01-15T07:15:20;41.97;;;39.10;;
11531;SDS011;5822;51.000;5.874;2024-01-15T07:17:46;44.33;;;41.42;;
11531;SDS011;5822;51.000;5.874;2024-01-15T07:20:12;45.53;;;42.42;;
11531;SDS011;5822;51.000;5.874;2024-01-15T07:22:38;45.00;;;41.92;;
11531;SDS011;5822;51.000;5.874;2024-01-15T07:25:04;43.70;;;40.70;;
11531;SDS011;5822;51.000;5.874;2024-01-15T07:27:31;46.55;;;43.35;;
11531;SDS011;5822;51.000;5.874;2024-01-15T07:29:57;45.15;;;42.05;;
11531;SDS011;5822;51.000;5.874;2024-01-15T07:32:23;42.78;;;39.85;;
11531;SDS011;5822;51.000;5.874;2024-01-15T07:34:49;36.90;;;34.20;;
11531;SDS011;5822;51.000;5.874;2024-01-15T07:37:14;36.23;;;33.63;;
11531;SDS011;5822;51.000;5.874;2024-01-15T07:39:40;35.30;;;32.60;;
11531;SDS011;5822;51.000;5.874;2024-01-15T07:42:06;34.42;;;31.83;;
11531;SDS011;5822;51.000;5.874;2024-01-15T07:44:34;33.70;;;31.13;;
11531;SDS011;5822;51.000;5.874;2024-01-15T07:47:00;34.30;;;31.70;;
11531;SDS011;5822;51.000;5.874;2024-01-15T07:49:26;34.90;;;32.30;;
11531;SDS011;5822;51.000;5.874;2024-01-15T07:51:51;36.80;;;34.10;;
11531;SDS011;5822;51.000;5.874;2024-01-15T07:54:17;37.57;;;34.97;;
11531;SDS011;5822;51.000;5.874;2024-01-15T07:57:02;36.00;;;33.50;;
11531;SDS011;5822;51.000;5.874;2024-01-15T07:59:30;34.55;;;32.05;;
11531;SDS011;5822;51.000;5.874;2024-01-15T08:01:57;33.75;;;31.35;;
11531;SDS011;5822;51.000;5.874;2024-01-15T08:04:24;33.20;;;30.70;;
11531;SDS011;5822;51.000;5.874;2024-01-15T08:06:49;33.87;;;31.37;;
11531;SDS011;5822;51.000;5.874;2024-01-15T08:09:15;33.70;;;31.30;;
11531;SDS011;5822;51.000;5.874;2024-01-15T08:11:41;31.10;;;28.90;;
11531;SDS011;5822;51.000;5.874;2024-01-15T08:14:11;32.50;;;30.10;;
11531;SDS011;5822;51.000;5.874;2024-01-15T08:16:37;30.42;;;28.02;;
11531;SDS011;5822;51.000;5.874;2024-01-15T08:19:03;30.65;;;28.25;;
11531;SDS011;5822;51.000;5.874;2024-01-15T08:21:29;30.00;;;27.70;;
11531;SDS011;5822;51.000;5.874;2024-01-15T08:23:58;29.67;;;27.40;;
11531;SDS011;5822;51.000;5.874;2024-01-15T08:26:25;30.10;;;27.90;;
11531;SDS011;5822;51.000;5.874;2024-01-15T08:28:51;32.28;;;29.98;;
11531;SDS011;5822;51.000;5.874;2024-01-15T08:31:17;30.92;;;28.63;;
11531;SDS011;5822;51.000;5.874;2024-01-15T08:33:43;30.20;;;28.03;;
11531;SDS011;5822;51.000;5.874;2024-01-15T08:36:11;29.73;;;27.52;;
11531;SDS011;5822;51.000;5.874;2024-01-15T08:38:41;28.70;;;26.60;;
11531;SDS011;5822;51.000;5.874;2024-01-15T08:41:06;28.45;;;26.25;;
11531;SDS011;5822;51.000;5.874;2024-01-15T08:43:33;28.08;;;26.08;;
11531;SDS011;5822;51.000;5.874;2024-01-15T08:45:59;27.77;;;25.77;;
11531;SDS011;5822;51.000;5.874;2024-01-15T08:48:25;28.27;;;26.27;;
11531;SDS011;5822;51.000;5.874;2024-01-15T08:50:54;27.65;;;25.55;;
11531;SDS011;5822;51.000;5.874;2024-01-15T08:53:20;27.50;;;25.50;;
11531;SDS011;5822;51.000;5.874;2024-01-15T08:55:46;25.67;;;23.77;;
11531;SDS011;5822;51.000;5.874;2024-01-15T08:58:12;25.33;;;23.50;;
11531;SDS011;5822;51.000;5.874;2024-01-15T09:00:38;25.40;;;23.50;;
11531;SDS011;5822;51.000;5.874;2024-01-15T09:03:04;26.07;;;24.17;;
11531;SDS011;5822;51.000;5.874;2024-01-15T09:05:29;25.47;;;23.57;;
11531;SDS011;5822;51.000;5.874;2024-01-15T09:07:55;26.40;;;24.50;;
11531;SDS011;5822;51.000;5.874;2024-01-15T09:10:21;27.10;;;25.20;;
11531;SDS011;5822;51.000;5.874;2024-01-15T09:12:47;27.83;;;25.83;;
11531;SDS011;5822;51.000;5.874;2024-01-15T09:15:14;27.10;;;25.20;;
11531;SDS011;5822;51.000;5.874;2024-01-15T09:17:40;26.60;;;24.70;;
11531;SDS011;5822;51.000;5.874;2024-01-15T09:20:06;26.90;;;25.00;;
11531;SDS011;5822;51.000;5.874;2024-01-15T09:22:33;25.52;;;23.70;;
11531;SDS011;5822;51.000;5.874;2024-01-15T09:24:59;26.43;;;24.53;;
11531;SDS011;5822;51.000;5.874;2024-01-15T09:27:25;25.10;;;23.30;;
11531;SDS011;5822;51.000;5.874;2024-01-15T09:29:53;24.65;;;22.95;;
11531;SDS011;5822;51.000;5.874;2024-01-15T09:32:21;22.50;;;20.90;;
11531;SDS011;5822;51.000;5.874;2024-01-15T09:34:47;23.10;;;21.40;;
11531;SDS011;5822;51.000;5.874;2024-01-15T09:37:14;22.87;;;21.17;;
11531;SDS011;5822;51.000;5.874;2024-01-15T09:39:40;22.40;;;20.80;;
11531;SDS011;5822;51.000;5.874;2024-01-15T09:42:06;22.37;;;20.77;;
11531;SDS011;5822;51.000;5.874;2024-01-15T09:44:33;24.48;;;22.77;;
11531;SDS011;5822;51.000;5.874;2024-01-15T09:46:59;25.27;;;23.48;;
11531;SDS011;5822;51.000;5.874;2024-01-15T09:49:25;24.35;;;22.65;;
11531;SDS011;5822;51.000;5.874;2024-01-15T09:51:50;24.33;;;22.63;;
11531;SDS011;5822;51.000;5.874;2024-01-15T09:54:16;23.70;;;22.10;;
11531;SDS011;5822;51.000;5.874;2024-01-15T09:56:46;23.80;;;22.10;;
11531;SDS011;5822;51.000;5.874;2024-01-15T09:59:16;24.42;;;22.73;;
11531;SDS011;5822;51.000;5.874;2024-01-15T10:01:43;24.40;;;22.70;;
11531;SDS011;5822;51.000;5.874;2024-01-15T10:04:10;23.90;;;22.20;;
11531;SDS011;5822;51.000;5.874;2024-01-15T10:06:37;24.20;;;22.50;;
11531;SDS011;5822;51.000;5.874;2024-01-15T10:09:04;23.60;;;21.90;;
11531;SDS011;5822;51.000;5.874;2024-01-15T10:11:32;23.45;;;21.75;;
11531;SDS011;5822;51.000;5.874;2024-01-15T10:13:58;23.25;;;21.55;;
11531;SDS011;5822;51.000;5.874;2024-01-15T10:16:24;23.10;;;21.47;;
11531;SDS011;5822;51.000;5.874;2024-01-15T10:18:51;23.27;;;21.58;;
11531;SDS011;5822;51.000;5.874;2024-01-15T10:21:17;24.35;;;22.48;;
11531;SDS011;5822;51.000;5.874;2024-01-15T10:23:42;26.10;;;24.30;;
11531;SDS011;5822;51.000;5.874;2024-01-15T10:26:09;25.67;;;23.88;;
11531;SDS011;5822;51.000;5.874;2024-01-15T10:28:36;25.50;;;23.70;;
11531;SDS011;5822;51.000;5.874;2024-01-15T10:31:02;25.13;;;23.33;;
11531;SDS011;5822;51.000;5.874;2024-01-15T10:33:28;26.10;;;24.30;;
11531;SDS011;5822;51.000;5.874;2024-01-15T10:35:55;25.70;;;23.90;;
11531;SDS011;5822;51.000;5.874;2024-01-15T10:38:28;26.15;;;24.35;;
11531;SDS011;5822;51.000;5.874;2024-01-15T10:40:54;26.60;;;24.70;;
11531;SDS011;5822;51.000;5.874;2024-01-15T10:43:20;25.00;;;23.20;;
11531;SDS011;5822;51.000;5.874;2024-01-15T10:45:47;25.35;;;23.48;;
11531;SDS011;5822;51.000;5.874;2024-01-15T10:48:14;24.63;;;22.83;;
11531;SDS011;5822;51.000;5.874;2024-01-15T10:50:42;23.42;;;21.73;;
11531;SDS011;5822;51.000;5.874;2024-01-15T10:53:09;23.48;;;21.70;;
11531;SDS011;5822;51.000;5.874;2024-01-15T10:55:37;23.05;;;21.30;;
11531;SDS011;5822;51.000;5.874;2024-01-15T10:58:03;24.05;;;22.23;;
11531;SDS011;5822;51.000;5.874;2024-01-15T11:00:29;25.05;;;23.25;;
11531;SDS011;5822;51.000;5.874;2024-01-15T11:02:55;26.73;;;24.83;;
11531;SDS011;5822;51.000;5.874;2024-01-15T11:05:22;26.15;;;24.25;;
11531;SDS011;5822;51.000;5.874;2024-01-15T11:07:48;25.88;;;24.00;;
11531;SDS011;5822;51.000;5.874;2024-01-15T11:13:08;25.60;;;23.80;;
11531;SDS011;5822;51.000;5.874;2024-01-15T11:18:20;25.25;;;23.45;;
11531;SDS011;5822;51.000;5.874;2024-01-15T11:26:29;25.25;;;23.35;;
11531;SDS011;5822;51.000;5.874;2024-01-15T11:28:54;23.60;;;21.90;;
11531;SDS011;5822;51.000;5.874;2024-01-15T11:33:53;24.00;;;22.10;;
11531;SDS011;5822;51.000;5.874;2024-01-15T11:36:20;23.70;;;22.00;;
11531;SDS011;5822;51.000;5.874;2024-01-15T11:38:46;26.07;;;24.27;;
11531;SDS011;5822;51.000;5.874;2024-01-15T11:41:13;26.17;;;24.38;;
11531;SDS011;5822;51.000;5.874;2024-01-15T11:43:42;26.73;;;24.83;;
11531;SDS011;5822;51.000;5.874;2024-01-15T11:46:11;26.27;;;24.27;;
11531;SDS011;5822;51.000;5.874;2024-01-15T11:48:43;25.00;;;23.30;;
11531;SDS011;5822;51.000;5.874;2024-01-15T11:51:12;25.98;;;24.17;;
11531;SDS011;5822;51.000;5.874;2024-01-15T11:53:48;25.48;;;23.63;;
11531;SDS011;5822;51.000;5.874;2024-01-15T11:56:17;24.20;;;22.50;;
11531;SDS011;5822;51.000;5.874;2024-01-15T11:58:47;24.63;;;22.73;;
11531;SDS011;5822;51.000;5.874;2024-01-15T12:01:13;24.63;;;22.83;;
11531;SDS011;5822;51.000;5.874;2024-01-15T12:03:38;24.63;;;22.73;;
11531;SDS011;5822;51.000;5.874;2024-01-15T12:06:08;22.47;;;20.77;;
11531;SDS011;5822;51.000;5.874;2024-01-15T12:08:35;22.42;;;20.73;;
11531;SDS011;5822;51.000;5.874;2024-01-15T12:11:01;22.92;;;21.23;;
11531;SDS011;5822;51.000;5.874;2024-01-15T12:13:35;22.48;;;20.77;;
11531;SDS011;5822;51.000;5.874;2024-01-15T12:16:01;23.07;;;21.37;;
11531;SDS011;5822;51.000;5.874;2024-01-15T12:18:29;23.75;;;22.05;;
11531;SDS011;5822;51.000;5.874;2024-01-15T12:20:54;23.93;;;22.23;;
11531;SDS011;5822;51.000;5.874;2024-01-15T12:23:20;24.60;;;22.80;;
11531;SDS011;5822;51.000;5.874;2024-01-15T12:25:46;24.27;;;22.57;;
11531;SDS011;5822;51.000;5.874;2024-01-15T12:28:12;23.58;;;21.88;;
11531;SDS011;5822;51.000;5.874;2024-01-15T12:30:38;25.00;;;23.20;;
11531;SDS011;5822;51.000;5.874;2024-01-15T12:33:04;25.67;;;23.88;;
11531;SDS011;5822;51.000;5.874;2024-01-15T12:35:30;23.85;;;22.15;;
11531;SDS011;5822;51.000;5.874;2024-01-15T12:37:56;24.63;;;22.83;;
11531;SDS011;5822;51.000;5.874;2024-01-15T12:40:22;24.30;;;22.58;;
11531;SDS011;5822;51.000;5.874;2024-01-15T12:42:49;23.60;;;21.90;;
11531;SDS011;5822;51.000;5.874;2024-01-15T12:45:15;21.90;;;20.30;;
11531;SDS011;5822;51.000;5.874;2024-01-15T12:47:41;21.75;;;20.15;;
11531;SDS011;5822;51.000;5.874;2024-01-15T12:50:08;22.00;;;20.40;;
11531;SDS011;5822;51.000;5.874;2024-01-15T12:52:34;22.05;;;20.40;;
11531;SDS011;5822;51.000;5.874;2024-01-15T12:55:02;23.17;;;21.50;;
11531;SDS011;5822;51.000;5.874;2024-01-15T12:57:32;24.83;;;23.13;;
11531;SDS011;5822;51.000;5.874;2024-01-15T12:59:59;24.63;;;22.92;;
11531;SDS011;5822;51.000;5.874;2024-01-15T13:02:24;24.70;;;23.00;;
11531;SDS011;5822;51.000;5.874;2024-01-15T13:04:50;24.42;;;22.73;;
11531;SDS011;5822;51.000;5.874;2024-01-15T13:07:16;24.00;;;22.30;;
11531;SDS011;5822;51.000;5.874;2024-01-15T13:09:42;24.10;;;22.40;;
11531;SDS011;5822;51.000;5.874;2024-01-15T13:12:08;24.02;;;22.33;;
11531;SDS011;5822;51.000;5.874;2024-01-15T13:14:34;23.85;;;22.15;;
11531;SDS011;5822;51.000;5.874;2024-01-15T13:17:00;23.63;;;21.92;;
11531;SDS011;5822;51.000;5.874;2024-01-15T13:19:25;23.65;;;21.95;;
11531;SDS011;5822;51.000;5.874;2024-01-15T13:21:52;21.75;;;20.15;;
11531;SDS011;5822;51.000;5.874;2024-01-15T13:24:18;21.30;;;19.70;;
11531;SDS011;5822;51.000;5.874;2024-01-15T13:26:44;20.83;;;19.33;;
11531;SDS011;5822;51.000;5.874;2024-01-15T13:29:10;21.23;;;19.63;;
11531;SDS011;5822;51.000;5.874;2024-01-15T13:31:36;21.77;;;20.17;;
11531;SDS011;5822;51.000;5.874;2024-01-15T13:34:01;24.03;;;22.33;;
11531;SDS011;5822;51.000;5.874;2024-01-15T13:36:28;24.93;;;23.17;;
11531;SDS011;5822;51.000;5.874;2024-01-15T13:38:54;24.60;;;22.90;;
11531;SDS011;5822;51.000;5.874;2024-01-15T13:41:20;23.70;;;22.00;;
11531;SDS011;5822;51.000;5.874;2024-01-15T13:43:53;23.80;;;22.10;;
11531;SDS011;5822;51.000;5.874;2024-01-15T13:46:20;24.02;;;22.33;;
11531;SDS011;5822;51.000;5.874;2024-01-15T13:48:48;24.77;;;23.08;;
11531;SDS011;5822;51.000;5.874;2024-01-15T13:51:13;23.20;;;21.50;;
11531;SDS011;5822;51.000;5.874;2024-01-15T13:53:39;23.95;;;22.25;;
11531;SDS011;5822;51.000;5.874;2024-01-15T13:56:05;24.17;;;22.47;;
11531;SDS011;5822;51.000;5.874;2024-01-15T13:58:32;23.50;;;21.80;;
11531;SDS011;5822;51.000;5.874;2024-01-15T14:00:58;21.27;;;19.67;;
11531;SDS011;5822;51.000;5.874;2024-01-15T14:03:24;22.15;;;20.55;;
11531;SDS011;5822;51.000;5.874;2024-01-15T14:05:53;22.20;;;20.60;;
11531;SDS011;5822;51.000;5.874;2024-01-15T14:08:19;21.90;;;20.30;;
11531;SDS011;5822;51.000;5.874;2024-01-15T14:10:44;23.73;;;22.03;;
11531;SDS011;5822;51.000;5.874;2024-01-15T14:13:10;24.98;;;23.27;;
11531;SDS011;5822;51.000;5.874;2024-01-15T14:15:36;24.45;;;22.75;;
11531;SDS011;5822;51.000;5.874;2024-01-15T14:18:02;24.30;;;22.70;;
11531;SDS011;5822;51.000;5.874;2024-01-15T14:20:28;25.05;;;23.35;;
11531;SDS011;5822;51.000;5.874;2024-01-15T14:22:53;24.60;;;22.90;;
11531;SDS011;5822;51.000;5.874;2024-01-15T14:25:22;24.20;;;22.50;;
11531;SDS011;5822;51.000;5.874;2024-01-15T14:27:49;23.88;;;22.17;;
11531;SDS011;5822;51.000;5.874;2024-01-15T14:30:15;23.02;;;21.42;;
11531;SDS011;5822;51.000;5.874;2024-01-15T14:32:41;22.67;;;21.08;;
11531;SDS011;5822;51.000;5.874;2024-01-15T14:35:08;22.50;;;20.90;;
11531;SDS011;5822;51.000;5.874;2024-01-15T14:37:36;21.20;;;19.60;;
11531;SDS011;5822;51.000;5.874;2024-01-15T14:40:03;21.30;;;19.80;;
11531;SDS011;5822;51.000;5.874;2024-01-15T14:42:31;21.05;;;19.55;;
11531;SDS011;5822;51.000;5.874;2024-01-15T14:44:56;21.17;;;19.67;;